Time;durP1;ratioP1;P1;durP2;ratioP2;P2;SDS_P1;SDS_P2;PMS_P1;PMS_P2;Temp;Humidity;BMP_temperature;BMP_pressure;BME280_temperature;BME280_humidity;BME280_pressure;Samples;Min_cycle;Max_cycle;Signal;HPM_P1;HPM_P2
2023/12/07 00:00:50;;;;;;;16.88;13.38;;;;;;;1.35;92.75;101735.63;3606506;39;20062;-64
2023/12/07 00:03:15;;;;;;;15.65;13.05;;;;;;;1.33;92.68;101737.41;3607372;39;20054;-64
2023/12/07 00:05:41;;;;;;;17.67;13.90;;;;;;;1.32;91.77;101722.41;3608046;39;20094;-64
2023/12/07 00:08:10;;;;;;;19.65;14.63;;;;;;;1.31;91.81;101726.84;3604551;39;20078;-64
2023/12/07 00:10:36;;;;;;;17.33;14.18;;;;;;;1.08;92.49;101691.72;3609016;39;20047;-64
2023/12/07 00:13:02;;;;;;;17.63;14.43;;;;;;;1.28;92.13;101723.34;3605808;39;20053;-64
2023/12/07 00:15:28;;;;;;;18.83;14.73;;;;;;;1.28;92.32;101713.63;3606294;39;20117;-64
2023/12/07 00:17:53;;;;;;;21.25;14.73;;;;;;;1.21;93.11;101711.06;3607216;39;20129;-64
2023/12/07 00:20:19;;;;;;;17.85;13.93;;;;;;;1.24;92.93;101709.25;3604641;39;20047;-64
2023/12/07 00:22:44;;;;;;;19.67;14.15;;;;;;;1.25;92.58;101718.06;3606936;39;20330;-64
2023/12/07 00:25:10;;;;;;;19.80;14.02;;;;;;;1.23;93.02;101717.19;3606421;39;20075;-65
2023/12/07 00:27:36;;;;;;;16.85;13.73;;;;;;;1.21;91.88;101721.66;3606773;39;20307;-64
2023/12/07 00:30:03;;;;;;;19.10;15.00;;;;;;;1.19;91.86;101718.13;3606283;39;20054;-64
2023/12/07 00:32:28;;;;;;;21.05;14.65;;;;;;;1.14;92.68;101724.34;3612330;39;20065;-64
2023/12/07 00:34:54;;;;;;;19.77;14.38;;;;;;;1.14;92.10;101728.75;3608610;39;20051;-64
2023/12/07 00:37:20;;;;;;;20.90;15.68;;;;;;;1.12;91.89;101726.13;3603884;39;20067;-64
2023/12/07 00:39:45;;;;;;;20.58;14.60;;;;;;;1.11;92.92;101734.97;3607357;39;20057;-65
2023/12/07 00:42:11;;;;;;;19.25;14.85;;;;;;;1.10;92.85;101724.38;3604396;39;20322;-64
2023/12/07 00:44:40;;;;;;;20.55;15.57;;;;;;;0.90;92.85;101690.13;3608214;39;20059;-64
2023/12/07 00:47:06;;;;;;;21.65;16.15;;;;;;;1.09;92.43;101726.16;3598047;39;20051;-64
2023/12/07 00:49:33;;;;;;;19.15;14.98;;;;;;;1.08;92.91;101720.84;3604547;39;20058;-64
2023/12/07 00:51:58;;;;;;;18.88;15.52;;;;;;;1.08;93.11;101711.16;3605929;39;20360;-64
2023/12/07 00:54:24;;;;;;;21.25;14.77;;;;;;;1.04;93.41;101709.41;3607520;39;20054;-64
2023/12/07 00:56:51;;;;;;;22.30;15.93;;;;;;;1.05;92.83;101711.19;3607382;39;20367;-64
2023/12/07 00:59:16;;;;;;;20.10;15.15;;;;;;;1.04;92.48;101719.13;3606788;39;20047;-64
2023/12/07 01:01:42;;;;;;;21.80;15.50;;;;;;;1.01;93.43;101714.72;3606247;39;20046;-64
2023/12/07 01:04:07;;;;;;;23.27;15.32;;;;;;;0.99;92.58;101718.31;3604647;39;20077;-65
2023/12/07 01:06:33;;;;;;;20.30;15.85;;;;;;;0.99;92.47;101728.88;3606445;39;20059;-64
2023/12/07 01:08:59;;;;;;;19.73;14.82;;;;;;;0.99;92.33;101719.19;3607675;39;20062;-64
2023/12/07 01:11:25;;;;;;;21.63;15.48;;;;;;;0.98;93.74;101727.09;3607106;39;20295;-64
2023/12/07 01:13:51;;;;;;;20.20;15.32;;;;;;;0.98;92.78;101735.94;3605248;39;20399;-64
2023/12/07 01:16:16;;;;;;;19.17;15.50;;;;;;;0.98;93.44;101740.34;3605992;39;20059;-64
2023/12/07 01:18:42;;;;;;;21.27;15.15;;;;;;;1.00;93.43;101738.56;3606489;39;20081;-65
2023/12/07 01:21:07;;;;;;;18.90;14.82;;;;;;;0.99;93.95;101732.41;3606137;39;20106;-64
2023/12/07 01:23:33;;;;;;;20.52;15.48;;;;;;;0.99;92.79;101732.41;3604088;39;20050;-64
2023/12/07 01:26:02;;;;;;;22.92;15.02;;;;;;;0.99;94.05;101727.13;3604236;39;20066;-64
2023/12/07 01:28:28;;;;;;;18.35;14.40;;;;;;;0.85;93.65;101707.78;3609382;39;20120;-64
2023/12/07 01:30:54;;;;;;;19.77;14.57;;;;;;;1.01;94.02;101730.59;3607414;39;20057;-64
2023/12/07 01:33:19;;;;;;;20.85;15.02;;;;;;;1.03;93.86;101727.97;3604283;39;20059;-64
2023/12/07 01:35:45;;;;;;;18.17;14.43;;;;;;;1.02;93.38;101734.16;3604218;39;20043;-64
2023/12/07 01:38:10;;;;;;;21.33;15.25;;;;;;;1.01;92.78;101735.03;3605984;39;20164;-65
2023/12/07 01:40:36;;;;;;;18.42;14.38;;;;;;;1.00;92.85;101731.50;3607833;39;20086;-64
2023/12/07 01:43:02;;;;;;;21.65;15.30;;;;;;;1.00;92.38;101734.16;3609384;39;20066;-64
2023/12/07 01:45:27;;;;;;;20.60;14.15;;;;;;;1.03;92.74;101727.97;3606273;39;20311;-64
2023/12/07 01:47:58;;;;;;;19.77;14.65;;;;;;;1.05;92.75;101728.84;3605594;39;20039;-64
2023/12/07 01:50:25;;;;;;;22.80;15.65;;;;;;;1.10;94.17;101740.25;3606801;39;20060;-64
2023/12/07 01:52:59;;;;;;;26.40;17.60;;;;;;;1.18;94.55;101740.22;3610537;39;20049;-64
2023/12/07 01:55:28;;;;;;;28.05;17.00;;;;;;;1.22;94.66;101731.34;3609290;39;20066;-64
2023/12/07 01:57:54;;;;;;;29.98;16.52;;;;;;;1.28;94.13;101731.28;3605783;39;20051;-64
2023/12/07 02:00:20;;;;;;;31.77;16.55;;;;;;;1.36;95.24;101726.78;3608206;39;20057;-64
2023/12/07 02:02:47;;;;;;;33.95;17.60;;;;;;;1.44;95.35;101734.69;3605010;39;20055;-64
2023/12/07 02:05:14;;;;;;;31.05;16.73;;;;;;;1.48;94.71;101731.09;3604835;39;20066;-65
2023/12/07 02:07:42;;;;;;;29.33;16.33;;;;;;;1.35;95.48;101704.72;3609745;39;20063;-65
2023/12/07 02:10:08;;;;;;;44.15;18.85;;;;;;;1.58;95.44;101730.97;3597652;39;20398;-64
2023/12/07 02:12:35;;;;;;;29.38;17.38;;;;;;;1.63;95.44;101734.47;3606492;39;20056;-65
2023/12/07 02:15:03;;;;;;;28.95;16.83;;;;;;;1.69;96.07;101743.25;3606134;39;20049;-64
2023/12/07 02:18:03;;;;;;;39.17;15.60;;;;;;;1.71;95.72;101733.50;3606276;39;20055;-64
2023/12/07 02:20:42;;;;;;;32.08;15.68;;;;;;;1.70;95.64;101737.94;3607679;39;20078;-64
2023/12/07 02:23:08;;;;;;;29.30;15.80;;;;;;;1.69;94.83;101735.31;3607753;39;20099;-64
2023/12/07 02:25:48;;;;;;;27.65;14.98;;;;;;;1.69;95.75;101737.97;3609040;39;20356;-64
2023/12/07 02:28:13;;;;;;;27.52;15.48;;;;;;;1.70;95.55;101745.00;3605947;39;20059;-64
2023/12/07 02:30:39;;;;;;;31.73;15.48;;;;;;;1.69;95.71;101752.09;3606063;39;20303;-64
2023/12/07 02:33:05;;;;;;;26.77;15.00;;;;;;;1.72;95.75;101751.19;3608516;39;20299;-65
2023/12/07 02:35:32;;;;;;;23.92;15.90;;;;;;;1.73;95.51;101747.63;3608430;39;20055;-64
2023/12/07 02:38:00;;;;;;;22.70;15.75;;;;;;;1.76;95.01;101747.59;3609564;39;20384;-64
2023/12/07 02:40:28;;;;;;;23.83;17.70;;;;;;;1.79;95.52;101747.56;3607187;39;20079;-64
2023/12/07 02:42:56;;;;;;;32.45;16.25;;;;;;;1.82;95.40;101758.13;3609080;39;20073;-65
2023/12/07 02:45:22;;;;;;;23.98;16.48;;;;;;;1.66;95.71;101714.13;3608966;39;20047;-64
2023/12/07 02:47:48;;;;;;;32.72;16.90;;;;;;;1.81;95.39;101745.78;3610809;39;20055;-64
2023/12/07 02:50:14;;;;;;;21.83;14.85;;;;;;;1.83;94.74;101741.31;3605573;39;20073;-64
2023/12/07 02:52:40;;;;;;;27.00;15.23;;;;;;;1.79;95.20;101737.84;3608109;39;20307;-64
2023/12/07 02:55:07;;;;;;;30.15;15.30;;;;;;;1.78;94.93;101738.75;3606128;39;20108;-64
2023/12/07 02:57:36;;;;;;;29.70;15.23;;;;;;;1.81;95.59;101743.13;3606044;39;20054;-64
2023/12/07 03:00:07;;;;;;;28.83;16.50;;;;;;;1.80;95.18;101736.94;3605084;39;20084;-64
2023/12/07 03:02:35;;;;;;;23.30;15.93;;;;;;;1.84;95.01;101743.09;3606085;39;20648;-64
2023/12/07 03:05:01;;;;;;;27.50;15.23;;;;;;;1.86;95.19;101750.13;3607057;39;20047;-64
2023/12/07 03:07:26;;;;;;;28.10;14.88;;;;;;;1.85;95.25;101747.50;3608300;39;20047;-64
2023/12/07 03:09:52;;;;;;;35.63;15.48;;;;;;;1.82;95.21;101743.09;3606802;39;20046;-64
2023/12/07 03:12:17;;;;;;;26.25;14.95;;;;;;;1.60;95.02;101701.81;3610572;39;20417;-64
2023/12/07 03:14:43;;;;;;;30.75;15.82;;;;;;;1.80;95.41;101744.88;3608555;39;20046;-65
2023/12/07 03:17:09;;;;;;;24.60;16.13;;;;;;;1.78;95.45;101745.81;3606297;39;20059;-64
2023/12/07 03:19:38;;;;;;;31.15;15.55;;;;;;;1.75;95.43;101756.44;3607349;39;20070;-64
2023/12/07 03:22:06;;;;;;;26.83;15.25;;;;;;;1.74;95.28;101754.66;3610103;39;20128;-64
2023/12/07 03:24:34;;;;;;;25.00;16.08;;;;;;;1.76;95.73;101745.81;3614557;39;20054;-65
2023/12/07 03:26:59;;;;;;;44.25;15.77;;;;;;;1.78;95.54;101751.13;3608019;39;20063;-64
2023/12/07 03:29:25;;;;;;;36.47;15.32;;;;;;;1.81;95.99;101751.09;3608609;39;20066;-64
2023/12/07 03:31:50;;;;;;;27.95;15.23;;;;;;;1.78;95.75;101756.41;3608347;39;20047;-64
2023/12/07 03:34:16;;;;;;;50.13;15.27;;;;;;;1.77;96.32;101744.03;3608427;39;20054;-65
2023/12/07 03:36:46;;;;;;;28.45;15.98;;;;;;;1.77;95.32;101741.38;3604711;39;20043;-64
2023/12/07 03:39:18;;;;;;;27.98;15.52;;;;;;;1.79;95.65;101752.88;3608432;39;20047;-64
2023/12/07 03:41:44;;;;;;;36.85;16.33;;;;;;;1.78;95.90;101761.72;3610351;39;20058;-64
2023/12/07 03:44:10;;;;;;;36.42;16.30;;;;;;;1.76;95.71;101752.91;3605297;39;20074;-65
2023/12/07 03:46:36;;;;;;;35.83;16.75;;;;;;;1.75;95.13;101756.44;3605433;39;20425;-64
2023/12/07 03:49:01;;;;;;;29.63;14.32;;;;;;;1.81;95.97;101756.38;3607201;39;20339;-64
2023/12/07 03:51:27;;;;;;;28.00;15.48;;;;;;;1.74;96.37;101760.84;3606181;39;20529;-64
2023/12/07 03:53:54;;;;;;;31.65;17.60;;;;;;;1.74;96.76;101770.56;3609617;39;20122;-64
2023/12/07 03:56:28;;;;;;;22.38;16.88;;;;;;;1.77;96.44;101765.25;3611023;39;20043;-64
2023/12/07 03:58:54;;;;;;;33.22;17.27;;;;;;;1.71;95.86;101763.53;3609365;39;20051;-64
2023/12/07 04:01:25;;;;;;;29.00;17.50;;;;;;;1.75;96.34;101777.66;3605237;39;20063;-64
2023/12/07 04:03:53;;;;;;;45.72;18.05;;;;;;;1.79;96.64;101779.38;3609107;39;20063;-64
2023/12/07 04:06:18;;;;;;;33.40;17.92;;;;;;;1.80;95.97;101781.13;3605786;39;20047;-65
2023/12/07 04:08:44;;;;;;;49.97;18.30;;;;;;;1.77;94.75;101776.72;3605378;39;20042;-64
2023/12/07 04:11:10;;;;;;;35.47;17.15;;;;;;;1.60;95.71;101752.16;3606150;39;20051;-65
2023/12/07 04:13:36;;;;;;;43.13;16.77;;;;;;;1.78;95.72;101778.50;3606062;39;20443;-65
2023/12/07 04:16:03;;;;;;;25.90;15.60;;;;;;;1.77;95.59;101784.66;3607346;39;20055;-64
2023/12/07 04:18:28;;;;;;;34.55;17.30;;;;;;;1.75;95.42;101782.97;3608397;39;20043;-64
2023/12/07 04:20:54;;;;;;;33.13;16.85;;;;;;;1.75;95.90;101788.25;3612875;39;20050;-64
2023/12/07 04:23:20;;;;;;;33.28;17.27;;;;;;;1.75;95.77;101789.13;3605514;39;20630;-64
2023/12/07 04:25:45;;;;;;;51.78;16.65;;;;;;;1.65;95.80;101778.63;3606224;39;20059;-64
2023/12/07 04:28:11;;;;;;;45.45;16.60;;;;;;;1.67;94.53;101790.09;3607601;39;20069;-64
2023/12/07 04:30:37;;;;;;;26.90;15.93;;;;;;;1.68;95.28;101791.84;3610087;39;20047;-64
2023/12/07 04:33:03;;;;;;;33.88;15.90;;;;;;;1.64;95.77;101788.34;3608412;39;20046;-64
2023/12/07 04:35:28;;;;;;;28.27;15.88;;;;;;;1.66;95.54;101788.34;3610920;39;20118;-64
2023/12/07 04:37:55;;;;;;;28.67;16.27;;;;;;;1.66;95.41;101793.66;3609380;39;20050;-64
2023/12/07 04:40:20;;;;;;;29.73;15.60;;;;;;;1.68;95.92;101803.34;3604148;39;20889;-64
2023/12/07 04:42:46;;;;;;;26.27;15.40;;;;;;;1.70;95.65;101793.59;3606008;39;20046;-64
2023/12/07 04:45:12;;;;;;;27.15;15.48;;;;;;;1.70;95.24;101790.06;3608889;39;20059;-64
2023/12/07 04:47:37;;;;;;;31.77;16.05;;;;;;;1.70;95.80;101795.38;3606577;39;20052;-64
2023/12/07 04:50:04;;;;;;;23.85;15.70;;;;;;;1.69;94.94;101788.31;3608561;39;20061;-64
2023/12/07 04:52:29;;;;;;;35.03;15.70;;;;;;;1.72;95.20;101782.97;3606739;39;20439;-64
2023/12/07 04:54:55;;;;;;;24.48;13.95;;;;;;;1.70;95.45;101780.34;3606681;39;20051;-64
2023/12/07 04:57:21;;;;;;;29.88;13.77;;;;;;;1.68;95.44;101791.84;3606848;39;20062;-64
2023/12/07 04:59:46;;;;;;;23.35;13.73;;;;;;;1.67;94.87;101784.78;3609900;39;20088;-64
2023/12/07 05:02:16;;;;;;;27.15;13.18;;;;;;;1.69;95.86;101777.72;3609163;39;20085;-64
2023/12/07 05:04:43;;;;;;;24.17;13.40;;;;;;;1.66;94.53;101773.31;3606425;39;20060;-64
2023/12/07 05:07:11;;;;;;;26.55;14.10;;;;;;;1.59;96.11;101746.00;3601184;39;20063;-64
2023/12/07 05:09:37;;;;;;;26.15;13.25;;;;;;;1.68;96.14;101757.38;3609228;39;20334;-64
2023/12/07 05:12:03;;;;;;;23.75;13.77;;;;;;;1.69;95.77;101756.50;3610607;39;20077;-63
2023/12/07 05:14:28;;;;;;;27.75;14.75;;;;;;;1.71;96.17;101754.69;3611540;39;20057;-64
2023/12/07 05:16:55;;;;;;;23.33;14.40;;;;;;;1.75;96.80;101757.31;3610456;39;20081;-64
2023/12/07 05:19:24;;;;;;;25.27;13.38;;;;;;;1.86;95.75;101754.53;3606738;39;20059;-64
2023/12/07 05:21:51;;;;;;;27.75;13.18;;;;;;;1.81;96.53;101751.09;3606578;39;20116;-64
2023/12/07 05:24:18;;;;;;;25.58;13.10;;;;;;;1.73;96.12;101742.31;3602099;39;20090;-63
2023/12/07 05:26:48;;;;;;;30.85;13.70;;;;;;;1.80;96.27;101749.31;3611745;39;20055;-64
2023/12/07 05:29:15;;;;;;;29.73;14.18;;;;;;;1.81;96.57;101748.44;3606107;39;20047;-64
2023/12/07 05:31:41;;;;;;;26.45;12.68;;;;;;;1.83;96.42;101747.50;3606675;39;20478;-64
2023/12/07 05:34:10;;;;;;;24.10;13.65;;;;;;;1.84;96.09;101743.97;3612780;39;20051;-64
2023/12/07 05:36:35;;;;;;;31.35;13.05;;;;;;;1.89;95.54;101748.34;3607309;39;20317;-63
2023/12/07 05:39:01;;;;;;;26.15;13.82;;;;;;;1.87;95.81;101743.03;3606364;39;20055;-62
2023/12/07 05:41:26;;;;;;;24.27;13.02;;;;;;;1.91;96.93;101741.25;3606943;39;20051;-62
2023/12/07 05:43:53;;;;;;;31.25;12.95;;;;;;;1.90;96.41;101734.19;3605320;39;20075;-63
2023/12/07 05:46:19;;;;;;;30.85;14.10;;;;;;;1.91;96.19;101742.13;3608417;39;20349;-63
2023/12/07 05:48:45;;;;;;;25.15;13.95;;;;;;;1.59;96.07;101690.34;3606994;39;20098;-63
2023/12/07 05:51:17;;;;;;;31.55;14.52;;;;;;;1.93;96.97;101742.97;3607481;39;20086;-63
2023/12/07 05:53:44;;;;;;;29.48;13.38;;;;;;;1.90;95.73;101735.03;3609943;39;20051;-64
2023/12/07 05:56:11;;;;;;;25.08;13.45;;;;;;;1.95;96.31;101743.84;3606071;39;20063;-63
2023/12/07 05:58:37;;;;;;;24.77;12.88;;;;;;;1.86;96.12;101733.34;3611342;39;20328;-63
2023/12/07 06:01:03;;;;;;;20.40;11.88;;;;;;;1.93;95.81;101740.31;3607192;39;20060;-64
2023/12/07 06:03:29;;;;;;;28.35;13.40;;;;;;;1.96;96.33;101742.06;3606822;39;20137;-63
2023/12/07 06:05:55;;;;;;;22.98;13.43;;;;;;;2.00;96.46;101741.16;3607386;39;20384;-64
2023/12/07 06:08:22;;;;;;;24.33;13.45;;;;;;;2.01;96.66;101741.13;3610681;39;20070;-64
2023/12/07 06:10:48;;;;;;;23.65;12.20;;;;;;;2.03;96.62;101739.34;3607095;39;20066;-64
2023/12/07 06:13:14;;;;;;;27.27;12.73;;;;;;;1.94;96.26;101731.50;3607046;39;20062;-64
2023/12/07 06:15:41;;;;;;;24.90;12.10;;;;;;;2.02;96.41;101749.94;3612923;39;20059;-64
2023/12/07 06:18:06;;;;;;;26.98;11.90;;;;;;;2.00;96.83;101735.84;3606411;39;20059;-63
2023/12/07 06:20:33;;;;;;;37.83;11.50;;;;;;;1.99;96.94;101740.25;3609309;39;20437;-63
2023/12/07 06:22:59;;;;;;;30.13;12.10;;;;;;;2.04;96.67;101743.75;3609855;39;20035;-64
2023/12/07 06:25:25;;;;;;;26.67;11.75;;;;;;;2.06;96.36;101741.06;3610942;39;21447;-64
2023/12/07 06:27:50;;;;;;;25.70;10.27;;;;;;;2.06;96.13;101736.66;3610435;39;20367;-64
2023/12/07 06:30:17;;;;;;;30.52;11.93;;;;;;;1.87;96.24;101711.22;3603807;39;20061;-64
2023/12/07 06:32:43;;;;;;;18.52;11.43;;;;;;;2.08;96.83;101747.22;3611412;39;20043;-64
2023/12/07 06:35:12;;;;;;;22.73;11.02;;;;;;;2.01;96.40;101738.47;3608413;39;20062;-64
2023/12/07 06:37:37;;;;;;;20.73;11.90;;;;;;;2.09;96.53;101733.06;3611641;39;20046;-64
2023/12/07 06:40:04;;;;;;;19.27;11.50;;;;;;;2.12;96.42;101734.81;3609378;39;20055;-64
2023/12/07 06:42:30;;;;;;;26.92;12.10;;;;;;;2.18;96.52;101734.72;3607767;39;20047;-64
2023/12/07 06:44:55;;;;;;;18.58;12.27;;;;;;;2.15;96.46;101718.84;3609128;39;20085;-64
2023/12/07 06:47:21;;;;;;;24.50;11.93;;;;;;;2.18;97.36;101708.22;3607554;39;20062;-64
2023/12/07 06:49:46;;;;;;;23.88;11.95;;;;;;;2.19;96.44;101707.28;3606921;39;20482;-64
2023/12/07 06:52:12;;;;;;;23.13;11.43;;;;;;;2.20;96.93;101714.38;3609251;39;20063;-64
2023/12/07 06:54:38;;;;;;;24.02;12.60;;;;;;;2.21;96.94;101700.22;3607435;39;20051;-64
2023/12/07 06:57:06;;;;;;;25.05;13.63;;;;;;;2.21;96.68;101702.84;3607836;39;20062;-64
2023/12/07 06:59:33;;;;;;;25.58;12.00;;;;;;;2.23;96.53;101709.03;3607468;39;20047;-64
2023/12/07 07:01:59;;;;;;;22.38;12.25;;;;;;;2.29;97.13;101711.59;3607910;39;20063;-64
2023/12/07 07:04:25;;;;;;;22.88;12.90;;;;;;;2.08;96.79;101684.44;3607674;39;20058;-64
2023/12/07 07:06:51;;;;;;;25.08;13.95;;;;;;;2.26;96.79;101720.47;3608071;39;20055;-64
2023/12/07 07:09:17;;;;;;;28.80;13.23;;;;;;;1.78;96.98;101631.84;3610179;39;20046;-64
2023/12/07 07:11:48;;;;;;;23.58;13.70;;;;;;;2.16;97.09;101692.31;3610254;39;20055;-64
2023/12/07 07:14:15;;;;;;;23.15;13.25;;;;;;;2.21;96.44;101701.09;3607942;39;20058;-64
2023/12/07 07:16:41;;;;;;;26.48;14.10;;;;;;;2.38;96.68;101726.50;3608556;39;20394;-64
2023/12/07 07:19:07;;;;;;;25.55;14.18;;;;;;;2.38;96.25;101732.72;3607813;39;20143;-63
2023/12/07 07:21:32;;;;;;;26.10;13.05;;;;;;;2.44;95.76;101731.72;3612141;39;20071;-64
2023/12/07 07:23:58;;;;;;;25.58;13.85;;;;;;;2.42;95.65;101731.75;3612018;39;20047;-64
2023/12/07 07:26:25;;;;;;;22.83;13.55;;;;;;;2.40;96.54;101730.91;3607305;39;20090;-63
2023/12/07 07:28:51;;;;;;;23.33;13.48;;;;;;;2.40;96.46;101736.19;3609701;39;20063;-64
2023/12/07 07:31:17;;;;;;;24.50;14.35;;;;;;;2.43;96.49;101743.25;3608828;39;20047;-63
2023/12/07 07:33:44;;;;;;;25.65;14.00;;;;;;;2.43;96.94;101745.91;3609341;39;20119;-64
2023/12/07 07:36:11;;;;;;;24.45;14.68;;;;;;;2.45;96.35;101745.00;3610144;39;20307;-63
2023/12/07 07:38:37;;;;;;;23.23;13.70;;;;;;;2.46;97.07;101741.44;3606318;39;20062;-64
2023/12/07 07:41:03;;;;;;;23.67;14.02;;;;;;;2.46;96.61;101738.78;3607045;39;20311;-64
2023/12/07 07:43:29;;;;;;;29.33;14.77;;;;;;;2.50;96.15;101748.44;3607042;39;20062;-64
2023/12/07 07:45:55;;;;;;;25.02;13.90;;;;;;;2.40;96.08;101725.59;3607078;39;20050;-64
2023/12/07 07:48:21;;;;;;;22.83;14.50;;;;;;;2.48;96.94;101739.66;3599532;39;20039;-64
2023/12/07 07:50:47;;;;;;;26.13;14.95;;;;;;;2.52;96.92;101741.34;3607495;39;20380;-64
2023/12/07 07:53:13;;;;;;;30.92;17.20;;;;;;;2.36;96.98;101709.75;3607426;39;20054;-64
2023/12/07 07:55:39;;;;;;;25.30;15.30;;;;;;;2.31;96.95;101693.88;3606579;39;20387;-64
2023/12/07 07:58:04;;;;;;;30.63;16.33;;;;;;;2.50;96.61;101721.03;3598053;39;20063;-64
2023/12/07 08:00:30;;;;;;;25.85;15.60;;;;;;;2.55;97.04;101716.53;3607951;39;20098;-64
2023/12/07 08:02:56;;;;;;;28.08;16.58;;;;;;;2.60;96.35;101727.09;3610557;39;20051;-64
2023/12/07 08:05:22;;;;;;;25.77;16.27;;;;;;;2.62;96.46;101727.94;3606511;39;20097;-64
2023/12/07 08:07:47;;;;;;;29.02;16.88;;;;;;;2.66;97.01;101727.88;3608261;39;20058;-64
2023/12/07 08:10:13;;;;;;;28.85;16.55;;;;;;;2.68;97.35;101728.72;3607663;39;20062;-64
2023/12/07 08:12:40;;;;;;;31.35;17.38;;;;;;;2.57;96.94;101701.50;3606325;39;20055;-64
2023/12/07 08:15:10;;;;;;;25.45;15.77;;;;;;;2.74;96.14;101722.47;3609429;39;20115;-63
2023/12/07 08:17:40;;;;;;;23.10;15.02;;;;;;;2.75;96.08;101724.22;3608261;39;20124;-64
2023/12/07 08:20:14;;;;;;;25.88;15.30;;;;;;;2.75;96.27;101727.72;3606690;39;20047;-63
2023/12/07 08:22:43;;;;;;;26.90;15.45;;;;;;;2.68;95.65;101725.22;3605903;39;20063;-64
2023/12/07 08:25:11;;;;;;;23.75;14.48;;;;;;;2.48;95.68;101691.00;3607843;39;20039;-64
2023/12/07 08:27:37;;;;;;;21.92;13.90;;;;;;;2.48;95.74;101698.97;3606856;39;20295;-64
2023/12/07 08:30:04;;;;;;;23.05;14.20;;;;;;;2.73;95.44;101739.31;3608346;39;20088;-64
2023/12/07 08:32:30;;;;;;;24.88;14.23;;;;;;;2.68;95.46;101735.81;3605299;39;20356;-64
2023/12/07 08:34:56;;;;;;;24.00;14.48;;;;;;;2.67;95.55;101742.91;3610569;39;20125;-64
2023/12/07 08:37:21;;;;;;;21.60;13.50;;;;;;;2.67;95.07;101732.28;3608034;39;20050;-64
2023/12/07 08:39:47;;;;;;;23.73;13.65;;;;;;;2.65;95.67;101730.56;3608314;39;20306;-64
2023/12/07 08:42:12;;;;;;;21.80;14.07;;;;;;;2.68;96.22;101735.81;3610680;39;20063;-64
2023/12/07 08:44:38;;;;;;;20.77;13.23;;;;;;;2.41;95.78;101684.91;3607349;39;20055;-64
2023/12/07 08:47:05;;;;;;;18.77;13.00;;;;;;;2.68;95.52;101730.50;3612356;39;20326;-64
2023/12/07 08:49:30;;;;;;;23.92;13.73;;;;;;;2.74;95.73;101727.78;3610440;39;20372;-64
2023/12/07 08:51:57;;;;;;;23.38;14.88;;;;;;;2.74;95.53;101743.69;3610137;39;20057;-64
2023/12/07 08:54:23;;;;;;;22.60;14.15;;;;;;;2.75;95.49;101732.16;3612314;39;20387;-64
2023/12/07 08:56:48;;;;;;;24.73;15.10;;;;;;;2.78;96.07;101748.06;3612270;39;20088;-64
2023/12/07 08:59:14;;;;;;;24.50;15.35;;;;;;;2.77;95.90;101736.56;3612571;39;20478;-64
2023/12/07 09:01:40;;;;;;;25.65;15.50;;;;;;;2.84;95.89;101740.00;3613150;39;20403;-64
2023/12/07 09:04:05;;;;;;;24.58;14.23;;;;;;;2.94;95.15;101741.59;3610749;39;20391;-64
2023/12/07 09:06:31;;;;;;;27.48;16.23;;;;;;;2.91;95.15;101736.34;3609470;39;20047;-64
2023/12/07 09:08:57;;;;;;;28.48;16.63;;;;;;;2.89;95.20;101735.50;3611456;39;20045;-64
2023/12/07 09:11:23;;;;;;;26.80;15.40;;;;;;;2.86;95.61;101729.38;3610795;39;20050;-64
2023/12/07 09:13:49;;;;;;;25.60;16.52;;;;;;;2.96;96.17;101720.34;3610002;39;20064;-64
2023/12/07 09:16:15;;;;;;;31.15;16.75;;;;;;;3.01;96.04;101724.69;3610352;39;20055;-64
2023/12/07 09:18:46;;;;;;;27.35;15.95;;;;;;;2.99;95.83;101715.88;3607974;39;20043;-64
2023/12/07 09:21:11;;;;;;;27.65;16.25;;;;;;;2.89;95.44;101700.13;3607263;39;20051;-64
2023/12/07 09:23:37;;;;;;;28.60;17.38;;;;;;;3.11;95.40;101721.88;3607831;39;20284;-64
2023/12/07 09:26:03;;;;;;;28.73;17.13;;;;;;;3.14;95.96;101721.81;3607821;39;20059;-64
2023/12/07 09:28:29;;;;;;;31.83;18.30;;;;;;;3.16;95.72;101722.69;3607335;39;20095;-64
2023/12/07 09:30:55;;;;;;;29.05;17.88;;;;;;;3.19;94.79;101717.31;3605211;39;20058;-64
2023/12/07 09:33:20;;;;;;;29.48;17.95;;;;;;;2.97;95.07;101676.94;3606332;39;20054;-64
2023/12/07 09:35:47;;;;;;;29.80;18.13;;;;;;;3.24;95.50;101710.16;3606864;39;20043;-64
2023/12/07 09:38:12;;;;;;;30.25;18.15;;;;;;;3.26;95.33;101708.31;3609844;39;20043;-64
2023/12/07 09:40:38;;;;;;;29.63;18.00;;;;;;;3.30;94.69;101706.50;3608664;39;20645;-64
2023/12/07 09:43:03;;;;;;;29.13;18.80;;;;;;;3.35;95.47;101708.16;3609733;39;20055;-64
2023/12/07 09:45:29;;;;;;;28.35;16.77;;;;;;;3.42;95.19;101696.50;3609308;39;20118;-64
2023/12/07 09:47:55;;;;;;;27.42;17.85;;;;;;;3.53;95.55;101698.13;3608365;39;20078;-64
2023/12/07 09:50:24;;;;;;;24.17;16.67;;;;;;;3.61;94.97;101698.84;3608804;39;20059;-64
2023/12/07 09:52:56;;;;;;;25.50;17.35;;;;;;;3.69;94.66;101686.28;3610157;39;20051;-64
2023/12/07 09:55:23;;;;;;;25.73;17.03;;;;;;;3.74;93.92;101679.06;3609608;39;20054;-64
2023/12/07 09:57:54;;;;;;;26.35;18.08;;;;;;;3.85;93.71;101674.44;3605742;39;20063;-64
2023/12/07 10:00:20;;;;;;;23.73;16.02;;;;;;;3.97;93.69;101669.78;3606880;39;20047;-64
2023/12/07 10:02:46;;;;;;;24.85;16.42;;;;;;;4.04;92.01;101663.41;3611461;39;20066;-64
2023/12/07 10:05:16;;;;;;;24.10;15.77;;;;;;;4.07;90.80;101666.00;3609717;39;20091;-64
2023/12/07 10:07:47;;;;;;;21.40;15.00;;;;;;;4.17;90.75;101651.59;3608319;39;20060;-64
2023/12/07 10:10:14;;;;;;;22.05;14.38;;;;;;;4.19;90.10;101649.78;3607626;39;20358;-64
2023/12/07 10:12:51;;;;;;;19.73;14.23;;;;;;;4.13;89.82;101623.31;3607470;39;20483;-64
2023/12/07 10:15:19;;;;;;;22.98;15.05;;;;;;;4.30;89.07;101647.75;3607537;39;20087;-64
2023/12/07 10:17:54;;;;;;;21.45;14.68;;;;;;;4.32;88.98;101645.06;3610659;39;20302;-65
2023/12/07 10:20:25;;;;;;;21.40;15.65;;;;;;;4.37;89.03;101638.69;3608183;39;20120;-65
2023/12/07 10:23:09;;;;;;;22.00;15.52;;;;;;;4.36;88.25;101626.31;3609360;39;20051;-64
2023/12/07 10:25:42;;;;;;;;;;;;;;;4.35;88.39;101618.38;3610756;39;20055;-64
2023/12/07 10:28:11;;;;;;;21.15;14.77;;;;;;;4.47;88.46;101611.88;3612162;39;19938;-64
2023/12/07 10:30:39;;;;;;;21.45;13.55;;;;;;;4.60;87.90;101621.34;3609307;39;20121;-65
2023/12/07 10:33:09;;;;;;;20.33;13.68;;;;;;;4.74;87.81;101615.66;3610822;39;20510;-65
2023/12/07 10:35:40;;;;;;;18.52;13.65;;;;;;;4.81;86.18;101619.91;3609745;39;20413;-65
2023/12/07 10:38:07;;;;;;;20.70;12.55;;;;;;;5.00;86.33;101613.19;3610752;39;20046;-64
2023/12/07 10:40:32;;;;;;;17.95;12.30;;;;;;;5.09;84.97;101612.94;3606877;39;20064;-64
2023/12/07 10:43:04;;;;;;;16.73;11.82;;;;;;;5.10;84.46;101611.16;3609430;39;20449;-64
2023/12/07 10:45:31;;;;;;;17.27;12.23;;;;;;;5.28;84.40;101596.47;3608431;39;20098;-64
2023/12/07 10:48:07;;;;;;;18.17;12.80;;;;;;;5.42;83.74;101598.75;3607795;39;20055;-64
2023/12/07 10:50:43;;;;;;;15.65;12.15;;;;;;;5.64;83.31;101591.00;3612095;39;20055;-64
2023/12/07 10:53:19;;;;;;;15.95;11.98;;;;;;;5.80;82.27;101581.63;3610062;39;20051;-64
2023/12/07 10:55:56;;;;;;;15.75;10.90;;;;;;;5.99;81.35;101589.97;3609805;39;20059;-64
2023/12/07 10:58:25;;;;;;;15.07;11.55;;;;;;;6.15;80.33;101580.59;3608684;39;20057;-64
2023/12/07 11:00:53;;;;;;;17.10;11.30;;;;;;;6.40;79.09;101586.00;3608350;39;20357;-64
2023/12/07 11:03:20;;;;;;;17.20;12.18;;;;;;;6.52;79.06;101584.75;3611187;39;20488;-64
2023/12/07 11:05:47;;;;;;;15.38;10.52;;;;;;;6.79;78.70;101579.41;3606483;39;20051;-64
2023/12/07 11:08:43;;;;;;;13.50;10.80;;;;;;;6.91;77.42;101561.16;3606395;39;20078;-64
2023/12/07 11:11:22;;;;;;;16.95;10.25;;;;;;;7.12;76.17;101564.00;3611219;39;20057;-64
2023/12/07 11:14:00;;;;;;;14.63;11.02;;;;;;;7.20;75.41;101560.13;3610493;39;20061;-63
2023/12/07 11:16:30;;;;;;;13.05;10.07;;;;;;;7.29;73.51;101550.00;3610521;39;20131;-64